Time;durP1;ratioP1;P1;durP2;ratioP2;P2;SDS_P1;SDS_P2;PMS_P1;PMS_P2;Temp;Humidity;BMP_temperature;BMP_pressure;BME280_temperature;BME280_humidity;BME280_pressure;Samples;Min_cycle;Max_cycle;Signal;HPM_P1;HPM_P2
2021/05/08 00:01:11;;;;;;;3.35;2.70;;;;;;;;;;5102687;28;20111;-69
2021/05/08 00:03:37;;;;;;;7.65;2.90;;;;;;;;;;5098183;28;20024;-70
2021/05/08 00:06:07;;;;;;;4.55;2.75;;;;;;;;;;5100491;28;20058;-68
2021/05/08 00:08:33;;;;;;;8.02;3.78;;;;;;;;;;5110147;28;20027;-68
2021/05/08 00:10:59;;;;;;;7.68;4.22;;;;;;;;;;5107413;28;20069;-68
2021/05/08 00:13:25;;;;;;;10.27;5.10;;;;;;;;;;5102154;28;20141;-68
2021/05/08 00:15:52;;;;;;;7.13;5.32;;;;;;;;;;5102199;28;20442;-66
2021/05/08 00:18:18;;;;;;;7.85;5.18;;;;;;;;;;5101772;28;20089;-67
2021/05/08 00:20:44;;;;;;;6.53;4.55;;;;;;;;;;5100933;28;20032;-65
2021/05/08 00:23:10;;;;;;;7.50;4.60;;;;;;;;;;5101238;28;20500;-66
2021/05/08 00:25:36;;;;;;;7.25;4.28;;;;;;;;;;5103871;28;20042;-66
2021/05/08 00:28:02;;;;;;;7.38;4.20;;;;;;;;;;5100722;28;20452;-65
2021/05/08 00:30:29;;;;;;;5.07;3.00;;;;;;;;;;5105373;28;20019;-66
2021/05/08 00:32:55;;;;;;;4.13;2.85;;;;;;;;;;5107250;28;20096;-63
2021/05/08 00:35:21;;;;;;;5.57;2.60;;;;;;;;;;5104212;28;20031;-64
2021/05/08 00:37:47;;;;;;;3.08;2.17;;;;;;;;;;5096077;28;20032;-65
2021/05/08 00:40:13;;;;;;;4.57;2.75;;;;;;;;;;5099269;28;20573;-64
2021/05/08 00:42:39;;;;;;;4.35;2.22;;;;;;;;;;5104367;28;20020;-65
2021/05/08 00:45:06;;;;;;;4.05;2.20;;;;;;;;;;5094679;28;20028;-66
2021/05/08 00:47:33;;;;;;;2.55;2.13;;;;;;;;;;5098865;28;20099;-63
2021/05/08 00:49:59;;;;;;;2.80;2.40;;;;;;;;;;5102139;28;20111;-65
2021/05/08 00:52:25;;;;;;;3.60;2.30;;;;;;;;;;5100446;28;20023;-65
2021/05/08 00:54:51;;;;;;;2.72;2.40;;;;;;;;;;5094800;28;20035;-65
2021/05/08 00:57:17;;;;;;;5.70;3.08;;;;;;;;;;5100987;28;20055;-66
2021/05/08 00:59:44;;;;;;;4.53;2.47;;;;;;;;;;5095325;28;20032;-66
2021/05/08 01:02:10;;;;;;;4.47;3.13;;;;;;;;;;5106646;28;20049;-65
2021/05/08 01:04:37;;;;;;;3.70;2.58;;;;;;;;;;5098989;28;20115;-65
2021/05/08 01:07:03;;;;;;;5.90;2.50;;;;;;;;;;5106542;28;20024;-65
2021/05/08 01:09:29;;;;;;;5.28;2.28;;;;;;;;;;5096913;28;20023;-66
2021/05/08 01:11:55;;;;;;;2.42;2.05;;;;;;;;;;5094164;28;20056;-66
2021/05/08 01:14:22;;;;;;;3.38;2.15;;;;;;;;;;5096537;28;20028;-65
2021/05/08 01:16:48;;;;;;;7.05;2.60;;;;;;;;;;5102715;28;20464;-65
2021/05/08 01:19:15;;;;;;;4.45;2.40;;;;;;;;;;5104308;28;20386;-65
2021/05/08 01:21:41;;;;;;;4.15;2.42;;;;;;;;;;5099195;28;20026;-66
2021/05/08 01:24:08;;;;;;;5.32;2.60;;;;;;;;;;5112734;28;20114;-65
2021/05/08 01:26:34;;;;;;;4.60;2.55;;;;;;;;;;5103066;28;20022;-65
2021/05/08 01:29:00;;;;;;;5.10;3.00;;;;;;;;;;5094804;28;20024;-65
2021/05/08 01:31:26;;;;;;;3.70;2.40;;;;;;;;;;5103678;28;20104;-65
2021/05/08 01:33:52;;;;;;;6.82;3.08;;;;;;;;;;5113378;28;20019;-66
2021/05/08 01:36:19;;;;;;;3.92;3.00;;;;;;;;;;5110262;28;20072;-64
2021/05/08 01:38:45;;;;;;;4.68;2.80;;;;;;;;;;5093252;28;20474;-65
2021/05/08 01:41:11;;;;;;;3.88;2.58;;;;;;;;;;5110660;28;20046;-64
2021/05/08 01:43:38;;;;;;;6.38;2.65;;;;;;;;;;5093908;28;20016;-65
2021/05/08 01:46:04;;;;;;;3.78;2.70;;;;;;;;;;5097335;28;20463;-65
2021/05/08 01:48:30;;;;;;;7.40;3.65;;;;;;;;;;5093899;28;20040;-64
2021/05/08 01:50:56;;;;;;;7.70;3.53;;;;;;;;;;5093525;28;20031;-65
2021/05/08 01:53:23;;;;;;;16.35;8.18;;;;;;;;;;5108136;28;20023;-65
2021/05/08 01:55:49;;;;;;;8.48;5.40;;;;;;;;;;5109543;28;20065;-65
2021/05/08 01:58:16;;;;;;;16.25;8.15;;;;;;;;;;5108748;28;20036;-65
2021/05/08 02:00:46;;;;;;;10.52;5.60;;;;;;;;;;5097721;28;20044;-64
2021/05/08 02:03:13;;;;;;;10.23;4.95;;;;;;;;;;5103940;28;20027;-65
2021/05/08 02:05:39;;;;;;;8.30;3.42;;;;;;;;;;5109793;28;20032;-65
2021/05/08 02:08:06;;;;;;;7.57;3.47;;;;;;;;;;5110721;28;20418;-66
2021/05/08 02:10:33;;;;;;;6.63;3.47;;;;;;;;;;5101984;28;20363;-65
2021/05/08 02:12:59;;;;;;;6.00;3.33;;;;;;;;;;5101293;28;20502;-66
2021/05/08 02:15:25;;;;;;;6.95;3.50;;;;;;;;;;5102724;28;20055;-66
2021/05/08 02:17:52;;;;;;;4.20;3.58;;;;;;;;;;5098483;28;20597;-65
2021/05/08 02:20:22;;;;;;;9.07;3.83;;;;;;;;;;5096699;28;20048;-66
2021/05/08 02:22:48;;;;;;;6.22;3.30;;;;;;;;;;5100139;28;20020;-65
2021/05/08 02:25:14;;;;;;;13.32;6.20;;;;;;;;;;5106545;28;20032;-65
2021/05/08 02:27:41;;;;;;;7.65;4.22;;;;;;;;;;5103217;28;20024;-65
2021/05/08 02:30:08;;;;;;;8.15;3.53;;;;;;;;;;5093955;28;20517;-64
2021/05/08 02:32:34;;;;;;;6.28;3.78;;;;;;;;;;5093187;28;20028;-65
2021/05/08 02:35:01;;;;;;;6.07;3.53;;;;;;;;;;5095126;28;20390;-66
2021/05/08 02:37:27;;;;;;;6.22;3.40;;;;;;;;;;5097440;28;20056;-65
2021/05/08 02:39:53;;;;;;;5.88;2.88;;;;;;;;;;5098311;28;20032;-66
2021/05/08 02:42:19;;;;;;;8.32;3.28;;;;;;;;;;5095328;28;20089;-64
2021/05/08 02:44:45;;;;;;;8.15;3.60;;;;;;;;;;5096535;28;20047;-65
2021/05/08 02:47:18;;;;;;;6.43;3.50;;;;;;;;;;5100713;28;20024;-64
2021/05/08 02:49:45;;;;;;;5.65;3.45;;;;;;;;;;5098244;28;20112;-64
2021/05/08 02:52:11;;;;;;;10.07;3.45;;;;;;;;;;5093817;28;20038;-65
2021/05/08 02:54:37;;;;;;;4.70;2.72;;;;;;;;;;5092515;28;20024;-65
2021/05/08 02:57:03;;;;;;;9.75;3.35;;;;;;;;;;5096765;28;20016;-65
2021/05/08 02:59:29;;;;;;;7.63;3.08;;;;;;;;;;5103123;28;20512;-65
2021/05/08 03:01:55;;;;;;;9.70;3.03;;;;;;;;;;5106855;28;20477;-66
2021/05/08 03:04:21;;;;;;;8.55;3.20;;;;;;;;;;5097117;28;20543;-66
2021/05/08 03:06:47;;;;;;;8.68;3.80;;;;;;;;;;5097089;28;20082;-65
2021/05/08 03:09:13;;;;;;;9.73;3.03;;;;;;;;;;5093246;28;20028;-66
2021/05/08 03:11:41;;;;;;;6.57;2.60;;;;;;;;;;5110341;28;20030;-65
2021/05/08 03:14:07;;;;;;;6.35;2.88;;;;;;;;;;5094876;28;20020;-64
2021/05/08 03:16:33;;;;;;;9.57;3.35;;;;;;;;;;5093198;28;20051;-66
2021/05/08 03:18:59;;;;;;;5.90;3.47;;;;;;;;;;5098491;28;20061;-65
2021/05/08 03:21:25;;;;;;;6.82;3.50;;;;;;;;;;5109422;28;20046;-65
2021/05/08 03:23:51;;;;;;;7.97;3.90;;;;;;;;;;5092308;28;20024;-66
2021/05/08 03:26:17;;;;;;;9.65;3.50;;;;;;;;;;5101723;28;20065;-64
2021/05/08 03:28:43;;;;;;;7.50;4.47;;;;;;;;;;5091956;28;20031;-65
2021/05/08 03:31:10;;;;;;;7.22;3.05;;;;;;;;;;5093874;28;20572;-63
2021/05/08 03:33:36;;;;;;;8.27;4.05;;;;;;;;;;5110675;28;20514;-64
2021/05/08 03:36:02;;;;;;;12.00;4.30;;;;;;;;;;5110105;28;20028;-65
2021/05/08 03:38:28;;;;;;;11.00;3.80;;;;;;;;;;5111246;28;20418;-64
2021/05/08 03:40:54;;;;;;;7.78;4.03;;;;;;;;;;5100544;28;20028;-62
2021/05/08 03:43:20;;;;;;;8.00;3.15;;;;;;;;;;5099063;28;20111;-64
2021/05/08 03:45:48;;;;;;;8.40;4.53;;;;;;;;;;5104249;28;20035;-63
2021/05/08 03:48:14;;;;;;;8.13;3.42;;;;;;;;;;5095753;28;20028;-65
2021/05/08 03:50:40;;;;;;;11.27;4.63;;;;;;;;;;5101659;28;20031;-64
2021/05/08 03:53:06;;;;;;;8.20;3.53;;;;;;;;;;5096422;28;20051;-63
2021/05/08 03:55:34;;;;;;;9.00;3.50;;;;;;;;;;5099400;28;20032;-66
2021/05/08 03:58:01;;;;;;;6.43;3.13;;;;;;;;;;5095646;28;20085;-64
2021/05/08 04:00:27;;;;;;;8.77;3.58;;;;;;;;;;5095518;28;20444;-65
2021/05/08 04:02:53;;;;;;;7.75;3.33;;;;;;;;;;5095185;28;20028;-64
2021/05/08 04:05:19;;;;;;;11.32;3.60;;;;;;;;;;5096199;28;20521;-64
2021/05/08 04:07:45;;;;;;;11.10;3.33;;;;;;;;;;5111119;28;20023;-64
2021/05/08 04:10:11;;;;;;;7.88;3.40;;;;;;;;;;5109966;28;20424;-63
2021/05/08 04:12:37;;;;;;;14.18;3.53;;;;;;;;;;5112069;28;20027;-64
2021/05/08 04:15:04;;;;;;;5.40;2.80;;;;;;;;;;5095669;28;20028;-64
2021/05/08 04:17:30;;;;;;;12.82;3.78;;;;;;;;;;5097297;28;20036;-63
2021/05/08 04:19:56;;;;;;;6.38;3.25;;;;;;;;;;5097097;28;20073;-63
2021/05/08 04:22:22;;;;;;;6.82;3.10;;;;;;;;;;5106478;28;20102;-63
2021/05/08 04:24:48;;;;;;;11.13;3.58;;;;;;;;;;5094610;28;20032;-64
2021/05/08 04:27:14;;;;;;;8.10;3.70;;;;;;;;;;5106974;28;20491;-64
2021/05/08 04:29:41;;;;;;;9.60;3.80;;;;;;;;;;5094805;28;20024;-63
2021/05/08 04:32:07;;;;;;;5.97;3.08;;;;;;;;;;5098658;28;20081;-64
2021/05/08 04:34:33;;;;;;;4.68;2.90;;;;;;;;;;5103622;28;20027;-65
2021/05/08 04:36:59;;;;;;;10.13;4.15;;;;;;;;;;5103806;28;20429;-65
2021/05/08 04:39:25;;;;;;;4.93;2.95;;;;;;;;;;5094973;28;20106;-65
2021/05/08 04:41:51;;;;;;;8.50;3.70;;;;;;;;;;5101853;28;20477;-63
2021/05/08 04:44:17;;;;;;;7.60;3.45;;;;;;;;;;5094909;28;20099;-64
2021/05/08 04:46:44;;;;;;;5.57;2.95;;;;;;;;;;5110821;28;20027;-63
2021/05/08 04:49:10;;;;;;;7.05;2.95;;;;;;;;;;5112845;28;20019;-62
2021/05/08 04:51:36;;;;;;;8.07;3.03;;;;;;;;;;5101172;28;20107;-63
2021/05/08 04:54:02;;;;;;;9.57;3.72;;;;;;;;;;5110137;28;20384;-65
2021/05/08 04:56:28;;;;;;;6.00;2.90;;;;;;;;;;5108835;28;20497;-62
2021/05/08 04:58:54;;;;;;;4.70;3.13;;;;;;;;;;5113618;28;20091;-62
2021/05/08 05:01:20;;;;;;;4.60;3.15;;;;;;;;;;5084055;28;20030;-63
2021/05/08 05:03:46;;;;;;;8.05;3.22;;;;;;;;;;5098623;28;20026;-64
2021/05/08 05:06:12;;;;;;;6.93;3.05;;;;;;;;;;5099326;28;20031;-63
2021/05/08 05:08:38;;;;;;;6.65;3.05;;;;;;;;;;5095138;28;20024;-64
2021/05/08 05:11:05;;;;;;;9.68;3.50;;;;;;;;;;5102313;28;20024;-64
2021/05/08 05:13:31;;;;;;;6.25;3.30;;;;;;;;;;5108136;28;20019;-63
2021/05/08 05:15:57;;;;;;;7.45;2.70;;;;;;;;;;5104404;28;20428;-64
2021/05/08 05:18:23;;;;;;;2.80;2.38;;;;;;;;;;5094973;28;20386;-63
2021/05/08 05:20:49;;;;;;;5.88;2.70;;;;;;;;;;5102994;28;20026;-63
2021/05/08 05:23:15;;;;;;;7.30;2.85;;;;;;;;;;5107229;28;20102;-64
2021/05/08 05:25:41;;;;;;;8.32;3.67;;;;;;;;;;5104647;28;20032;-65
2021/05/08 05:28:21;;;;;;;7.28;3.15;;;;;;;;;;5092289;28;20024;-63
2021/05/08 05:30:47;;;;;;;5.45;2.80;;;;;;;;;;5096279;28;20023;-64
2021/05/08 05:33:13;;;;;;;7.70;3.30;;;;;;;;;;5081699;28;20027;-64
2021/05/08 05:35:39;;;;;;;4.60;2.95;;;;;;;;;;5097745;28;20031;-66
2021/05/08 05:38:05;;;;;;;11.40;3.45;;;;;;;;;;5101119;28;20027;-63
2021/05/08 05:40:32;;;;;;;5.78;2.75;;;;;;;;;;5095982;28;20124;-63
2021/05/08 05:42:58;;;;;;;5.75;2.85;;;;;;;;;;5113647;28;20023;-64
2021/05/08 05:45:24;;;;;;;6.63;4.07;;;;;;;;;;5109543;28;20046;-63
2021/05/08 05:48:01;;;;;;;6.85;2.53;;;;;;;;;;5104135;28;20031;-63
2021/05/08 05:50:27;;;;;;;4.53;2.70;;;;;;;;;;5092682;28;20052;-64
2021/05/08 05:52:54;;;;;;;7.47;3.00;;;;;;;;;;5098328;28;20031;-65
2021/05/08 05:55:20;;;;;;;6.60;2.60;;;;;;;;;;5098847;28;20027;-64
2021/05/08 05:57:47;;;;;;;5.25;2.65;;;;;;;;;;5111068;28;20478;-63
2021/05/08 06:00:13;;;;;;;5.50;2.42;;;;;;;;;;5105781;28;20379;-64
2021/05/08 06:02:39;;;;;;;2.63;2.40;;;;;;;;;;5094255;28;20391;-63
2021/05/08 06:05:06;;;;;;;4.32;2.67;;;;;;;;;;5103300;28;20032;-64
2021/05/08 06:07:32;;;;;;;6.85;2.65;;;;;;;;;;5093858;28;20608;-65
2021/05/08 06:09:58;;;;;;;3.22;2.08;;;;;;;;;;5105128;28;20024;-65
2021/05/08 06:12:25;;;;;;;3.83;2.72;;;;;;;;;;5113166;28;20098;-63
2021/05/08 06:14:51;;;;;;;5.40;2.50;;;;;;;;;;5103638;28;20085;-63
2021/05/08 06:17:17;;;;;;;4.18;2.25;;;;;;;;;;5105052;28;20471;-64
2021/05/08 06:19:43;;;;;;;4.43;2.55;;;;;;;;;;5102684;28;20893;-64
2021/05/08 06:22:09;;;;;;;6.78;2.20;;;;;;;;;;5091497;28;20020;-65
2021/05/08 06:24:35;;;;;;;6.55;3.17;;;;;;;;;;5092108;28;20031;-69
2021/05/08 06:27:02;;;;;;;3.85;2.15;;;;;;;;;;5092388;28;20597;-64
2021/05/08 06:29:28;;;;;;;5.15;2.30;;;;;;;;;;5107279;28;20028;-64
2021/05/08 06:31:54;;;;;;;5.47;2.38;;;;;;;;;;5092456;28;20020;-65
2021/05/08 06:34:20;;;;;;;6.60;2.10;;;;;;;;;;5083936;28;20425;-64
2021/05/08 06:36:46;;;;;;;4.55;2.10;;;;;;;;;;5093084;28;20034;-64
2021/05/08 06:39:12;;;;;;;6.40;2.17;;;;;;;;;;5097152;28;20024;-64
2021/05/08 06:41:38;;;;;;;5.68;2.35;;;;;;;;;;5110364;28;20044;-64
2021/05/08 06:44:05;;;;;;;3.40;2.05;;;;;;;;;;5105507;28;20028;-64
2021/05/08 06:46:31;;;;;;;8.73;2.70;;;;;;;;;;5105281;28;20024;-64
2021/05/08 06:48:57;;;;;;;5.82;2.35;;;;;;;;;;5100924;28;20023;-63
2021/05/08 06:51:23;;;;;;;4.13;2.15;;;;;;;;;;5109548;28;20027;-64
2021/05/08 06:53:49;;;;;;;5.78;2.45;;;;;;;;;;5105226;28;20084;-64
2021/05/08 06:56:15;;;;;;;6.03;2.20;;;;;;;;;;5109280;28;20141;-64
2021/05/08 06:58:41;;;;;;;3.50;1.95;;;;;;;;;;5093113;28;20028;-64
2021/05/08 07:01:08;;;;;;;5.05;2.22;;;;;;;;;;5093876;28;20085;-64
2021/05/08 07:03:34;;;;;;;3.85;2.20;;;;;;;;;;5103828;28;20028;-64
2021/05/08 07:06:00;;;;;;;5.38;2.20;;;;;;;;;;5100777;28;20028;-64
2021/05/08 07:08:27;;;;;;;7.25;2.10;;;;;;;;;;5094433;28;20016;-64
2021/05/08 07:10:53;;;;;;;5.63;2.22;;;;;;;;;;5110871;28;20035;-67
2021/05/08 07:13:20;;;;;;;4.90;2.20;;;;;;;;;;5111744;28;20098;-65
2021/05/08 07:15:47;;;;;;;6.82;2.15;;;;;;;;;;5106361;28;20117;-64
2021/05/08 07:18:13;;;;;;;3.65;2.30;;;;;;;;;;5096031;28;20031;-66
2021/05/08 07:20:39;;;;;;;3.40;2.00;;;;;;;;;;5099182;28;20482;-64
2021/05/08 07:23:06;;;;;;;5.32;2.22;;;;;;;;;;5078003;28;20471;-64
2021/05/08 07:25:32;;;;;;;7.90;2.60;;;;;;;;;;5114154;28;20036;-63
2021/05/08 07:28:19;;;;;;;6.32;2.42;;;;;;;;;;5099652;28;20026;-63
2021/05/08 07:30:46;;;;;;;4.78;2.17;;;;;;;;;;5095892;28;20042;-64
2021/05/08 07:33:13;;;;;;;7.20;2.70;;;;;;;;;;5096182;28;20017;-66
2021/05/08 07:35:39;;;;;;;5.03;2.22;;;;;;;;;;5087248;28;20547;-64
2021/05/08 07:38:06;;;;;;;7.13;2.63;;;;;;;;;;5099598;28;20032;-64
2021/05/08 07:40:32;;;;;;;5.20;2.40;;;;;;;;;;5114300;28;20482;-63
2021/05/08 07:42:58;;;;;;;6.47;2.60;;;;;;;;;;5100958;28;20111;-63
2021/05/08 07:45:25;;;;;;;4.38;2.30;;;;;;;;;;5096031;28;20024;-63
2021/05/08 07:47:51;;;;;;;3.00;2.05;;;;;;;;;;5095805;28;20028;-63
2021/05/08 07:50:17;;;;;;;8.48;2.33;;;;;;;;;;5098208;28;20016;-64
2021/05/08 07:52:43;;;;;;;7.97;2.38;;;;;;;;;;5106837;28;20027;-63
2021/05/08 07:55:10;;;;;;;7.25;2.80;;;;;;;;;;5105198;28;20497;-63
2021/05/08 07:57:37;;;;;;;5.72;2.65;;;;;;;;;;5102231;28;20470;-63
2021/05/08 08:00:06;;;;;;;5.65;2.35;;;;;;;;;;5108094;28;20134;-64
2021/05/08 08:02:32;;;;;;;6.10;2.72;;;;;;;;;;5095197;28;20378;-64
2021/05/08 08:04:59;;;;;;;5.80;2.80;;;;;;;;;;5100596;28;20023;-66
2021/05/08 08:07:25;;;;;;;4.85;2.60;;;;;;;;;;5105837;28;20015;-67
2021/05/08 08:09:51;;;;;;;9.73;3.25;;;;;;;;;;5110610;28;20482;-64
2021/05/08 08:12:17;;;;;;;7.25;3.08;;;;;;;;;;5111820;28;20102;-64
2021/05/08 08:14:43;;;;;;;8.32;3.00;;;;;;;;;;5103961;28;20031;-63
2021/05/08 08:17:09;;;;;;;6.43;3.00;;;;;;;;;;5103293;28;20043;-63
2021/05/08 08:19:35;;;;;;;8.40;3.30;;;;;;;;;;5097288;28;20490;-62
2021/05/08 08:22:01;;;;;;;12.80;3.22;;;;;;;;;;5092132;28;20024;-63
2021/05/08 08:24:27;;;;;;;7.95;4.45;;;;;;;;;;5092514;28;20470;-62
2021/05/08 08:26:53;;;;;;;9.85;3.58;;;;;;;;;;5103780;28;20542;-63
2021/05/08 08:29:20;;;;;;;7.80;3.92;;;;;;;;;;5104140;28;20055;-63
2021/05/08 08:31:46;;;;;;;6.35;3.22;;;;;;;;;;5093558;28;20028;-64
2021/05/08 08:34:13;;;;;;;14.20;4.60;;;;;;;;;;5093936;28;20107;-64
2021/05/08 08:36:39;;;;;;;8.55;3.95;;;;;;;;;;5104152;28;20020;-63
2021/05/08 08:39:05;;;;;;;15.45;7.40;;;;;;;;;;5098695;28;20132;-63
2021/05/08 08:41:32;;;;;;;9.40;3.60;;;;;;;;;;5098303;28;20016;-64
2021/05/08 08:43:58;;;;;;;6.30;3.17;;;;;;;;;;5109296;28;20023;-62
2021/05/08 08:46:24;;;;;;;9.27;5.00;;;;;;;;;;5099341;28;20391;-64
2021/05/08 08:48:51;;;;;;;16.00;7.22;;;;;;;;;;5099604;28;20043;-66
2021/05/08 08:51:17;;;;;;;10.85;7.82;;;;;;;;;;5099321;28;20024;-64
2021/05/08 08:53:43;;;;;;;7.47;4.28;;;;;;;;;;5107935;28;20087;-63
2021/05/08 08:56:10;;;;;;;7.72;4.43;;;;;;;;;;5114816;28;20043;-63
2021/05/08 08:58:38;;;;;;;13.70;11.27;;;;;;;;;;5104212;28;20023;-64
2021/05/08 09:01:06;;;;;;;7.32;4.28;;;;;;;;;;5113633;28;20110;-64
2021/05/08 09:03:33;;;;;;;7.90;3.80;;;;;;;;;;5111206;28;20103;-64
2021/05/08 09:06:00;;;;;;;6.43;3.42;;;;;;;;;;5094197;28;20028;-64
2021/05/08 09:08:26;;;;;;;6.07;3.05;;;;;;;;;;5104343;28;20031;-63
2021/05/08 09:10:52;;;;;;;6.25;3.00;;;;;;;;;;5105023;28;20028;-63
2021/05/08 09:13:20;;;;;;;19.52;3.33;;;;;;;;;;5093770;28;20020;-64
2021/05/08 09:15:48;;;;;;;8.30;3.70;;;;;;;;;;5103642;28;20043;-64
2021/05/08 09:18:34;;;;;;;7.20;3.90;;;;;;;;;;5096069;28;20028;-65
2021/05/08 09:21:01;;;;;;;6.03;3.15;;;;;;;;;;5087267;28;20036;-63
2021/05/08 09:23:35;;;;;;;6.22;3.53;;;;;;;;;;5110072;28;20382;-65
2021/05/08 09:26:14;;;;;;;5.22;3.58;;;;;;;;;;5113896;28;20023;-65
2021/05/08 09:28:41;;;;;;;6.50;3.78;;;;;;;;;;5109236;28;20111;-64
2021/05/08 09:31:09;;;;;;;4.90;3.25;;;;;;;;;;5093457;28;20447;-65
2021/05/08 09:33:35;;;;;;;3.53;2.33;;;;;;;;;;5101428;28;20053;-63
2021/05/08 09:36:07;;;;;;;3.28;2.30;;;;;;;;;;5106242;28;20028;-64
2021/05/08 09:38:41;;;;;;;3.35;2.55;;;;;;;;;;5096177;28;20072;-64
2021/05/08 09:41:08;;;;;;;5.35;2.70;;;;;;;;;;5095566;28;20425;-65
2021/05/08 09:43:36;;;;;;;3.50;2.75;;;;;;;;;;5094885;28;20383;-66
2021/05/08 09:46:03;;;;;;;5.07;2.80;;;;;;;;;;5099540;28;20110;-64
2021/05/08 09:48:33;;;;;;;3.95;2.65;;;;;;;;;;5112793;28;20023;-66
2021/05/08 09:51:22;;;;;;;4.25;2.53;;;;;;;;;;5112157;28;20020;-64
2021/05/08 09:53:49;;;;;;;2.55;2.00;;;;;;;;;;5113446;28;20024;-67
2021/05/08 09:56:34;;;;;;;3.40;2.03;;;;;;;;;;5106108;28;20428;-65
2021/05/08 09:59:21;;;;;;;3.70;1.80;;;;;;;;;;5102836;28;20035;-65
2021/05/08 10:01:48;;;;;;;3.25;1.77;;;;;;;;;;5095528;28;20032;-65
2021/05/08 10:04:27;;;;;;;3.05;2.17;;;;;;;;;;5104995;28;20034;-64
2021/05/08 10:07:09;;;;;;;3.65;2.05;;;;;;;;;;5110962;28;20027;-64
2021/05/08 10:09:35;;;;;;;4.63;2.38;;;;;;;;;;5110731;28;20474;-64
2021/05/08 10:12:03;;;;;;;4.63;1.90;;;;;;;;;;5096114;28;20057;-65
2021/05/08 10:14:30;;;;;;;5.40;2.20;;;;;;;;;;5100434;28;20118;-64
2021/05/08 10:16:57;;;;;;;6.15;2.08;;;;;;;;;;5112802;28;20126;-64
2021/05/08 10:19:24;;;;;;;3.00;2.35;;;;;;;;;;5106934;28;20020;-64
2021/05/08 10:21:50;;;;;;;3.47;2.03;;;;;;;;;;5094447;28;20030;-65
2021/05/08 10:24:16;;;;;;;5.40;2.80;;;;;;;;;;5101750;28;20487;-65
2021/05/08 10:26:42;;;;;;;3.67;2.70;;;;;;;;;;5093738;28;20028;-64
2021/05/08 10:29:09;;;;;;;6.82;2.75;;;;;;;;;;5102909;28;20373;-64
2021/05/08 10:31:36;;;;;;;3.38;2.70;;;;;;;;;;5096055;28;20051;-64
2021/05/08 10:34:02;;;;;;;4.00;2.65;;;;;;;;;;5096619;28;20020;-65
2021/05/08 10:36:49;;;;;;;4.85;2.88;;;;;;;;;;5099435;28;20032;-64
2021/05/08 10:39:17;;;;;;;3.35;2.20;;;;;;;;;;5107667;28;20035;-65
2021/05/08 10:41:52;;;;;;;4.35;2.30;;;;;;;;;;5110165;28;20512;-64
2021/05/08 10:44:38;;;;;;;4.28;2.20;;;;;;;;;;5107372;28;20034;-64
2021/05/08 10:47:05;;;;;;;4.15;2.35;;;;;;;;;;5080774;28;20101;-64
2021/05/08 10:49:31;;;;;;;4.55;2.00;;;;;;;;;;5112742;28;20019;-64
2021/05/08 10:51:58;;;;;;;3.47;1.95;;;;;;;;;;5094523;28;20444;-64
2021/05/08 10:54:41;;;;;;;4.15;1.90;;;;;;;;;;5105641;28;20024;-64
2021/05/08 10:57:21;;;;;;;4.72;2.17;;;;;;;;;;5116857;28;20032;-64
2021/05/08 11:00:07;;;;;;;3.38;1.85;;;;;;;;;;5100689;28;20026;-64
2021/05/08 11:02:43;;;;;;;4.63;1.88;;;;;;;;;;5111640;28;20028;-64
2021/05/08 11:05:24;;;;;;;6.28;3.70;;;;;;;;;;5116895;28;20031;-64
2021/05/08 11:07:50;;;;;;;4.22;2.30;;;;;;;;;;5098553;28;20035;-64
2021/05/08 11:10:34;;;;;;;3.85;2.40;;;;;;;;;;5096252;28;20030;-64
2021/05/08 11:13:14;;;;;;;4.88;3.20;;;;;;;;;;5101877;28;20508;-65
2021/05/08 11:15:56;;;;;;;4.22;2.00;;;;;;;;;;5096122;28;20139;-63
2021/05/08 11:18:48;;;;;;;6.32;2.72;;;;;;;;;;5096430;28;20032;-64
2021/05/08 11:21:14;;;;;;;10.70;6.15;;;;;;;;;;5091692;28;20043;-63
2021/05/08 11:23:43;;;;;;;3.97;2.00;;;;;;;;;;5097167;28;20502;-64
2021/05/08 11:26:22;;;;;;;2.88;2.10;;;;;;;;;;5098915;28;20391;-63
2021/05/08 11:28:55;;;;;;;2.75;1.70;;;;;;;;;;5113409;28;20116;-64
2021/05/08 11:31:24;;;;;;;4.82;2.50;;;;;;;;;;5099257;28;20111;-64
2021/05/08 11:33:50;;;;;;;5.45;4.50;;;;;;;;;;5095958;28;20031;-64
2021/05/08 11:36:16;;;;;;;5.85;2.80;;;;;;;;;;5105571;28;20039;-63
2021/05/08 11:38:42;;;;;;;4.03;2.60;;;;;;;;;;5106164;28;20063;-63
2021/05/08 11:41:20;;;;;;;8.80;4.05;;;;;;;;;;5100449;28;20475;-64
2021/05/08 11:43:53;;;;;;;4.10;2.22;;;;;;;;;;5111886;28;20386;-64
2021/05/08 11:46:27;;;;;;;3.38;2.55;;;;;;;;;;5107520;28;20408;-65
2021/05/08 11:48:54;;;;;;;3.70;1.90;;;;;;;;;;5100025;28;20511;-64
2021/05/08 11:51:20;;;;;;;4.20;2.20;;;;;;;;;;5109994;28;20028;-63
2021/05/08 11:54:04;;;;;;;4.75;1.90;;;;;;;;;;5111921;28;20444;-64
2021/05/08 11:56:31;;;;;;;4.45;2.15;;;;;;;;;;5113082;28;20390;-65
2021/05/08 11:58:57;;;;;;;6.35;3.80;;;;;;;;;;5115958;28;20069;-65
2021/05/08 12:01:23;;;;;;;5.15;2.83;;;;;;;;;;5107876;28;20063;-65
2021/05/08 12:03:56;;;;;;;3.50;2.83;;;;;;;;;;5095017;28;20051;-64
2021/05/08 12:06:22;;;;;;;2.65;1.98;;;;;;;;;;5096232;28;20124;-64
2021/05/08 12:08:48;;;;;;;4.28;2.42;;;;;;;;;;5100392;28;20103;-64
2021/05/08 12:11:18;;;;;;;3.45;1.80;;;;;;;;;;5094857;28;20082;-63
2021/05/08 12:13:44;;;;;;;4.22;1.88;;;;;;;;;;5095450;28;20020;-64
2021/05/08 12:16:11;;;;;;;2.72;1.67;;;;;;;;;;5095020;28;20456;-63
2021/05/08 12:18:38;;;;;;;3.15;1.83;;;;;;;;;;5095338;28;20028;-64
2021/05/08 12:21:05;;;;;;;5.75;1.85;;;;;;;;;;5095204;28;20386;-63
2021/05/08 12:23:32;;;;;;;3.90;2.00;;;;;;;;;;5104934;28;20034;-63
2021/05/08 12:26:07;;;;;;;2.95;1.67;;;;;;;;;;5094605;28;20108;-65
2021/05/08 12:28:33;;;;;;;3.65;2.13;;;;;;;;;;5097757;28;20051;-63
2021/05/08 12:30:59;;;;;;;3.92;1.70;;;;;;;;;;5115131;28;20016;-64
2021/05/08 12:33:26;;;;;;;3.30;2.17;;;;;;;;;;5102583;28;20026;-65
2021/05/08 12:35:53;;;;;;;5.32;2.13;;;;;;;;;;5094453;28;20024;-65
2021/05/08 12:38:19;;;;;;;3.47;1.80;;;;;;;;;;5114645;28;20068;-64
2021/05/08 12:40:46;;;;;;;4.07;2.10;;;;;;;;;;5102247;28;20055;-65
2021/05/08 12:43:23;;;;;;;3.25;2.00;;;;;;;;;;5105954;28;20407;-63
2021/05/08 12:46:05;;;;;;;4.75;2.38;;;;;;;;;;5110532;28;20474;-64
2021/05/08 12:48:38;;;;;;;3.55;2.05;;;;;;;;;;5094284;28;20024;-63
2021/05/08 12:51:24;;;;;;;2.85;1.80;;;;;;;;;;5099425;28;20355;-64
2021/05/08 12:54:10;;;;;;;3.40;2.75;;;;;;;;;;5103513;28;20024;-65
2021/05/08 12:56:36;;;;;;;4.57;1.83;;;;;;;;;;5105702;28;20070;-64
2021/05/08 12:59:02;;;;;;;2.80;2.20;;;;;;;;;;5096327;28;20107;-64
2021/05/08 13:01:28;;;;;;;3.38;1.75;;;;;;;;;;5075924;28;20028;-65
2021/05/08 13:03:54;;;;;;;5.65;2.17;;;;;;;;;;5110385;28;20027;-64
2021/05/08 13:06:22;;;;;;;3.03;1.58;;;;;;;;;;5108805;28;20032;-65
2021/05/08 13:08:52;;;;;;;3.42;2.22;;;;;;;;;;5101809;28;20032;-64
2021/05/08 13:11:39;;;;;;;3.75;2.10;;;;;;;;;;5095746;28;20117;-65
2021/05/08 13:14:23;;;;;;;4.85;2.40;;;;;;;;;;5100286;28;20023;-65
2021/05/08 13:16:51;;;;;;;4.72;2.03;;;;;;;;;;5109082;28;20488;-64
2021/05/08 13:19:17;;;;;;;2.92;1.92;;;;;;;;;;5095229;28;20510;-64
2021/05/08 13:21:48;;;;;;;4.40;2.10;;;;;;;;;;5094446;28;20087;-65
2021/05/08 13:24:14;;;;;;;3.05;1.75;;;;;;;;;;5093415;28;20092;-64
2021/05/08 13:26:41;;;;;;;4.43;1.85;;;;;;;;;;5095307;28;20069;-64
2021/05/08 13:29:07;;;;;;;4.13;1.65;;;;;;;;;;5109557;28;20495;-65
2021/05/08 13:31:33;;;;;;;3.88;2.45;;;;;;;;;;5097064;28;20498;-64
2021/05/08 13:34:00;;;;;;;3.33;2.10;;;;;;;;;;5105823;28;20110;-64
2021/05/08 13:36:26;;;;;;;6.63;2.70;;;;;;;;;;5113539;28;20100;-64
2021/05/08 13:38:53;;;;;;;4.07;2.10;;;;;;;;;;5093196;28;20057;-64
2021/05/08 13:41:19;;;;;;;5.28;2.50;;;;;;;;;;5107412;28;20486;-65
2021/05/08 13:43:45;;;;;;;4.32;1.70;;;;;;;;;;5113596;28;20517;-66
2021/05/08 13:46:12;;;;;;;2.75;2.08;;;;;;;;;;5083212;28;20048;-64
2021/05/08 13:48:38;;;;;;;4.45;2.10;;;;;;;;;;5093204;28;20027;-64
2021/05/08 13:51:07;;;;;;;4.28;2.03;;;;;;;;;;5094257;28;20498;-64
2021/05/08 13:53:33;;;;;;;6.50;2.63;;;;;;;;;;5092752;28;20100;-65
2021/05/08 13:55:59;;;;;;;5.85;2.60;;;;;;;;;;5101482;28;20024;-65
2021/05/08 13:58:26;;;;;;;4.75;2.80;;;;;;;;;;5113445;28;20031;-65
2021/05/08 14:00:52;;;;;;;3.50;1.80;;;;;;;;;;5105249;28;20031;-64
2021/05/08 14:03:18;;;;;;;5.22;2.00;;;;;;;;;;5093151;28;20059;-65
2021/05/08 14:05:44;;;;;;;5.75;2.00;;;;;;;;;;5099129;28;20115;-65
2021/05/08 14:08:10;;;;;;;4.85;2.20;;;;;;;;;;5113164;28;20023;-66
2021/05/08 14:10:36;;;;;;;5.50;2.03;;;;;;;;;;5108268;28;20044;-65
2021/05/08 14:13:03;;;;;;;5.93;2.25;;;;;;;;;;5098561;28;20028;-64
2021/05/08 14:15:29;;;;;;;5.35;2.20;;;;;;;;;;5109892;28;20098;-63
2021/05/08 14:17:55;;;;;;;6.80;2.50;;;;;;;;;;5092830;28;20020;-63
2021/05/08 14:20:21;;;;;;;5.40;2.70;;;;;;;;;;5094061;28;20028;-64
2021/05/08 14:22:47;;;;;;;8.80;2.95;;;;;;;;;;5109058;28;20111;-64
2021/05/08 14:25:14;;;;;;;5.50;2.40;;;;;;;;;;5091789;28;20024;-65
2021/05/08 14:27:40;;;;;;;7.15;2.17;;;;;;;;;;5092471;28;20020;-65
2021/05/08 14:30:09;;;;;;;5.47;2.60;;;;;;;;;;5092916;28;20027;-64
2021/05/08 14:32:35;;;;;;;9.23;3.22;;;;;;;;;;5092685;28;20015;-66
2021/05/08 14:35:02;;;;;;;8.23;2.38;;;;;;;;;;5092406;28;20107;-66
2021/05/08 14:37:28;;;;;;;5.45;2.75;;;;;;;;;;5092686;28;20078;-65
2021/05/08 14:39:54;;;;;;;6.95;2.63;;;;;;;;;;5092532;28;20499;-66
2021/05/08 14:42:22;;;;;;;7.07;3.08;;;;;;;;;;5093840;28;20032;-66
2021/05/08 14:44:48;;;;;;;6.95;3.30;;;;;;;;;;5092577;28;20386;-66
2021/05/08 14:47:14;;;;;;;7.13;3.30;;;;;;;;;;5104913;28;20374;-66